Time;durP1;ratioP1;P1;durP2;ratioP2;P2;SDS_P1;SDS_P2;PMS_P1;PMS_P2;Temp;Humidity;BMP_temperature;BMP_pressure;BME280_temperature;BME280_humidity;BME280_pressure;Samples;Min_cycle;Max_cycle;Signal;HPM_P1;HPM_P2
2023/05/05 00:01:34;;;;;;;10.23;4.05;;;11.70;99.90;;;;;;5023688;28;20053;-64
2023/05/05 00:04:00;;;;;;;10.25;4.43;;;11.80;99.90;;;;;;5028796;28;20397;-65
2023/05/05 00:06:27;;;;;;;6.90;4.40;;;11.70;99.90;;;;;;5027199;28;20048;-65
2023/05/05 00:08:53;;;;;;;6.90;4.32;;;11.70;99.90;;;;;;5026269;28;20250;-64
2023/05/05 00:11:19;;;;;;;9.23;4.35;;;11.80;99.90;;;;;;5026625;28;20404;-63
2023/05/05 00:13:45;;;;;;;14.27;4.72;;;11.80;99.90;;;;;;5026955;28;20049;-65
2023/05/05 00:16:11;;;;;;;8.85;4.80;;;11.80;99.90;;;;;;5030623;28;20663;-63
2023/05/05 00:18:37;;;;;;;7.30;4.15;;;11.80;99.90;;;;;;5023308;28;20049;-64
2023/05/05 00:21:03;;;;;;;8.32;4.55;;;11.80;99.90;;;;;;5026958;28;20080;-65
2023/05/05 00:23:29;;;;;;;8.98;4.68;;;11.80;99.90;;;;;;5016033;28;20051;-64
2023/05/05 00:25:54;;;;;;;10.20;5.07;;;11.90;99.90;;;;;;5027039;28;20033;-64
2023/05/05 00:28:20;;;;;;;10.85;4.22;;;11.70;99.90;;;;;;5025211;28;24238;-63
2023/05/05 00:30:46;;;;;;;10.25;4.25;;;11.80;99.90;;;;;;5025854;28;20063;-63
2023/05/05 00:33:12;;;;;;;8.15;4.88;;;11.70;99.90;;;;;;5025934;28;20500;-64
2023/05/05 00:35:38;;;;;;;12.63;4.32;;;11.70;99.90;;;;;;5030435;28;20041;-65
2023/05/05 00:38:03;;;;;;;10.80;4.50;;;11.70;99.90;;;;;;5024950;28;20034;-64
2023/05/05 00:40:30;;;;;;;8.05;4.30;;;11.70;99.90;;;;;;5023127;28;20041;-64
2023/05/05 00:42:58;;;;;;;9.32;4.68;;;11.70;99.90;;;;;;5017652;28;20146;-64
2023/05/05 00:45:24;;;;;;;7.03;4.38;;;11.70;99.90;;;;;;5022603;28;20156;-65
2023/05/05 00:47:53;;;;;;;14.68;4.72;;;11.70;99.90;;;;;;5022998;28;20029;-64
2023/05/05 00:50:25;;;;;;;6.63;4.70;;;11.70;99.90;;;;;;5012070;28;20051;-63
2023/05/05 00:52:54;;;;;;;9.02;4.13;;;11.70;99.90;;;;;;5024042;28;20037;-65
2023/05/05 00:55:20;;;;;;;13.60;5.00;;;11.70;99.90;;;;;;5029621;28;20045;-64
2023/05/05 00:57:47;;;;;;;6.13;3.97;;;11.70;99.90;;;;;;5029758;28;20041;-64
2023/05/05 01:00:13;;;;;;;7.90;4.15;;;11.60;99.90;;;;;;5022759;28;20099;-65
2023/05/05 01:02:40;;;;;;;7.68;3.92;;;11.60;99.90;;;;;;5024744;28;20037;-64
2023/05/05 01:05:09;;;;;;;9.93;4.75;;;11.60;99.90;;;;;;5026387;28;20065;-64
2023/05/05 01:07:43;;;;;;;6.85;4.80;;;11.60;99.90;;;;;;5001781;28;20045;-64
2023/05/05 01:10:14;;;;;;;;;;;11.50;99.90;;;;;;5030256;28;20060;-64
2023/05/05 01:12:46;;;;;;;8.35;4.28;;;11.50;99.90;;;;;;5022633;28;19917;-63
2023/05/05 01:15:27;;;;;;;15.45;5.10;;;11.50;99.90;;;;;;5032767;28;20040;-64
2023/05/05 01:18:16;;;;;;;7.63;4.65;;;11.40;99.90;;;;;;5026218;28;20049;-63
2023/05/05 01:20:53;;;;;;;10.40;4.88;;;11.40;99.90;;;;;;5021867;28;20060;-64
2023/05/05 01:24:06;;;;;;;11.15;4.82;;;11.40;99.90;;;;;;5024999;28;20046;-64
2023/05/05 01:26:51;;;;;;;8.68;4.65;;;11.30;99.90;;;;;;5027696;28;20140;-64
2023/05/05 01:29:21;;;;;;;9.07;4.50;;;11.20;99.90;;;;;;5016702;28;20128;-63
2023/05/05 01:31:52;;;;;;;9.63;4.93;;;11.20;99.90;;;;;;5006961;28;20093;-63
2023/05/05 01:34:26;;;;;;;13.07;4.35;;;11.20;99.90;;;;;;5025193;28;20049;-64
2023/05/05 01:37:03;;;;;;;10.98;5.43;;;11.20;99.90;;;;;;5028151;28;20040;-64
2023/05/05 01:39:32;;;;;;;11.27;5.05;;;11.20;99.90;;;;;;5027331;28;20037;-65
2023/05/05 01:42:04;;;;;;;8.73;4.97;;;11.20;99.90;;;;;;5029944;28;20544;-64
2023/05/05 01:44:33;;;;;;;13.52;5.45;;;11.20;99.90;;;;;;5028559;28;20089;-63
2023/05/05 01:47:00;;;;;;;8.82;5.07;;;11.20;99.90;;;;;;5025064;28;20033;-65
2023/05/05 01:49:26;;;;;;;9.02;4.88;;;11.20;99.90;;;;;;5011030;28;20440;-63
2023/05/05 01:51:55;;;;;;;10.23;5.38;;;11.20;99.90;;;;;;5023290;28;20141;-61
2023/05/05 01:54:23;;;;;;;9.70;4.90;;;11.20;99.90;;;;;;5024664;28;20131;-64
2023/05/05 01:56:51;;;;;;;12.25;5.00;;;11.20;99.90;;;;;;5021407;28;20045;-63
2023/05/05 01:59:19;;;;;;;6.60;4.88;;;11.20;99.90;;;;;;5023843;28;20045;-63
2023/05/05 02:01:48;;;;;;;9.07;5.30;;;11.20;99.90;;;;;;5026102;28;20072;-65
2023/05/05 02:04:16;;;;;;;10.48;5.10;;;11.20;99.90;;;;;;5026403;28;20045;-63
2023/05/05 02:06:46;;;;;;;9.30;5.43;;;11.20;99.90;;;;;;5025866;28;20069;-63
2023/05/05 02:09:13;;;;;;;7.28;5.03;;;11.20;99.90;;;;;;5024138;28;20137;-65
2023/05/05 02:11:39;;;;;;;11.65;5.25;;;11.10;99.90;;;;;;5022637;28;20037;-61
2023/05/05 02:14:06;;;;;;;17.35;5.75;;;11.10;99.90;;;;;;5025433;28;20041;-64
2023/05/05 02:16:32;;;;;;;8.80;4.85;;;11.10;99.90;;;;;;5029981;28;20099;-64
2023/05/05 02:19:01;;;;;;;9.00;4.82;;;11.10;99.90;;;;;;5027756;28;20073;-64
2023/05/05 02:21:27;;;;;;;9.02;5.43;;;11.00;99.90;;;;;;5030014;28;20042;-64
2023/05/05 02:23:53;;;;;;;9.80;5.57;;;11.00;99.90;;;;;;5029290;28;20118;-65
2023/05/05 02:26:21;;;;;;;14.10;5.20;;;11.00;99.90;;;;;;5007051;28;20420;-65
2023/05/05 02:29:04;;;;;;;11.43;4.82;;;11.00;99.90;;;;;;5039856;28;20401;-63
2023/05/05 02:31:32;;;;;;;7.28;4.72;;;11.00;99.90;;;;;;5027486;28;20129;-65
2023/05/05 02:34:00;;;;;;;6.88;4.22;;;11.00;99.90;;;;;;5020562;28;20392;-65
2023/05/05 02:36:31;;;;;;;9.40;5.40;;;11.00;99.90;;;;;;5009381;28;20045;-64
2023/05/05 02:39:03;;;;;;;12.10;5.65;;;11.00;99.90;;;;;;5027722;28;20079;-63
2023/05/05 02:41:31;;;;;;;7.80;4.53;;;11.00;99.90;;;;;;5040063;28;20099;-62
2023/05/05 02:43:59;;;;;;;11.23;5.13;;;11.00;99.90;;;;;;5027706;28;20056;-63
2023/05/05 02:46:27;;;;;;;7.25;4.80;;;11.00;99.90;;;;;;5026558;28;20065;-63
2023/05/05 02:48:52;;;;;;;9.52;5.05;;;11.00;99.90;;;;;;5026555;28;20044;-65
2023/05/05 02:51:18;;;;;;;9.93;5.18;;;11.00;99.90;;;;;;5011697;28;20049;-64
2023/05/05 02:53:44;;;;;;;7.50;4.70;;;10.90;99.90;;;;;;5026312;28;20052;-64
2023/05/05 02:56:41;;;;;;;7.97;5.20;;;10.90;99.90;;;;;;5028254;28;20069;-63
2023/05/05 02:59:25;;;;;;;8.18;4.38;;;10.90;99.90;;;;;;5018009;28;20076;-65
2023/05/05 03:01:51;;;;;;;;;;;10.90;99.90;;;;;;5021251;28;20037;-64
2023/05/05 03:04:22;;;;;;;11.40;4.63;;;10.90;99.90;;;;;;5020502;28;19943;-64
2023/05/05 03:06:52;;;;;;;9.52;4.88;;;10.90;99.90;;;;;;5019603;28;20382;-62
2023/05/05 03:09:32;;;;;;;8.98;4.85;;;10.80;99.90;;;;;;5028197;28;20094;-64
2023/05/05 03:12:03;;;;;;;8.93;5.30;;;10.90;99.90;;;;;;5025283;28;20040;-64
2023/05/05 03:14:39;;;;;;;9.77;5.05;;;10.90;99.90;;;;;;5022373;28;20052;-64
2023/05/05 03:17:06;;;;;;;9.10;5.07;;;10.90;99.90;;;;;;5026241;28;20048;-65
2023/05/05 03:19:34;;;;;;;8.82;4.97;;;11.00;99.90;;;;;;4983572;28;20393;-65
2023/05/05 03:22:01;;;;;;;7.03;4.32;;;11.00;99.90;;;;;;5023825;28;20101;-64
2023/05/05 03:24:27;;;;;;;7.28;4.30;;;11.10;99.90;;;;;;5021038;28;20045;-64
2023/05/05 03:26:53;;;;;;;9.95;5.05;;;11.10;99.90;;;;;;5026325;28;20124;-65
2023/05/05 03:29:19;;;;;;;8.85;5.22;;;11.10;99.90;;;;;;5029201;28;20561;-65
2023/05/05 03:31:44;;;;;;;7.93;4.63;;;11.10;99.90;;;;;;5001648;28;20060;-65
2023/05/05 03:34:10;;;;;;;6.90;4.35;;;11.20;99.90;;;;;;5009347;28;20461;-64
2023/05/05 03:36:37;;;;;;;6.93;4.28;;;11.20;99.90;;;;;;5028493;28;20503;-65
2023/05/05 03:39:02;;;;;;;8.68;4.85;;;11.20;99.90;;;;;;5026369;28;20037;-64
2023/05/05 03:41:28;;;;;;;12.27;5.47;;;11.20;99.90;;;;;;5011354;28;20040;-63
2023/05/05 03:43:54;;;;;;;9.23;5.25;;;11.30;99.90;;;;;;5027575;28;20053;-63
2023/05/05 03:46:20;;;;;;;11.38;4.93;;;11.30;99.90;;;;;;5020793;28;20695;-62
2023/05/05 03:48:45;;;;;;;8.23;5.35;;;11.30;99.90;;;;;;5026279;28;20033;-62
2023/05/05 03:51:14;;;;;;;8.68;5.28;;;11.30;99.90;;;;;;5018152;28;20065;-62
2023/05/05 03:53:40;;;;;;;9.30;5.30;;;11.30;99.90;;;;;;5027636;28;20045;-61
2023/05/05 03:56:06;;;;;;;6.97;4.60;;;11.30;99.90;;;;;;5011944;28;20107;-62
2023/05/05 03:58:32;;;;;;;9.88;6.18;;;11.30;99.90;;;;;;5029018;28;20049;-62
2023/05/05 04:00:57;;;;;;;10.23;6.50;;;11.20;99.90;;;;;;5024834;28;20042;-62
2023/05/05 04:03:23;;;;;;;10.38;6.10;;;11.20;99.90;;;;;;5039754;28;20061;-61
2023/05/05 04:05:49;;;;;;;11.38;7.20;;;11.20;99.90;;;;;;5027601;28;20046;-62
2023/05/05 04:08:15;;;;;;;12.20;6.85;;;11.20;99.90;;;;;;5027290;28;20034;-60
2023/05/05 04:10:41;;;;;;;12.75;6.20;;;11.20;99.90;;;;;;5026570;28;20236;-61
2023/05/05 04:13:07;;;;;;;9.40;6.47;;;11.10;99.90;;;;;;5026441;28;20507;-62
2023/05/05 04:15:33;;;;;;;9.70;6.82;;;11.10;99.90;;;;;;5003881;28;20041;-62
2023/05/05 04:17:59;;;;;;;9.27;6.10;;;11.00;99.90;;;;;;5028386;28;20034;-62
2023/05/05 04:20:25;;;;;;;14.90;7.30;;;11.00;99.90;;;;;;5029105;28;20049;-63
2023/05/05 04:22:50;;;;;;;10.10;7.93;;;11.00;99.90;;;;;;5024428;28;20128;-62
2023/05/05 04:25:16;;;;;;;11.60;6.72;;;11.00;99.90;;;;;;5027515;28;20120;-61
2023/05/05 04:27:42;;;;;;;13.32;7.20;;;11.00;99.90;;;;;;5027980;28;20048;-60
2023/05/05 04:30:08;;;;;;;14.43;7.50;;;11.00;99.90;;;;;;5044470;28;20038;-63
2023/05/05 04:32:34;;;;;;;10.25;7.40;;;11.00;99.90;;;;;;5028926;28;20052;-63
2023/05/05 04:35:00;;;;;;;10.70;6.70;;;11.00;99.90;;;;;;5027392;28;20492;-63
2023/05/05 04:37:25;;;;;;;10.50;7.57;;;11.00;99.90;;;;;;5027601;28;20120;-63
2023/05/05 04:39:51;;;;;;;11.43;7.88;;;10.90;99.90;;;;;;5028060;28;20448;-62
2023/05/05 04:42:17;;;;;;;10.75;7.13;;;10.90;99.90;;;;;;5027425;28;20041;-62
2023/05/05 04:44:43;;;;;;;9.65;7.25;;;10.80;99.90;;;;;;5027163;28;20050;-63
2023/05/05 04:47:08;;;;;;;13.60;7.63;;;10.80;99.90;;;;;;5028496;28;20087;-63
2023/05/05 04:49:34;;;;;;;11.43;7.13;;;10.80;99.90;;;;;;5028945;28;20519;-62
2023/05/05 04:52:00;;;;;;;13.00;7.63;;;10.80;99.90;;;;;;5026940;28;20362;-63
2023/05/05 04:54:26;;;;;;;11.95;7.45;;;10.70;99.90;;;;;;5023309;28;20038;-62
2023/05/05 04:56:52;;;;;;;8.65;6.07;;;10.70;99.90;;;;;;4994555;28;20041;-63
2023/05/05 04:59:18;;;;;;;12.00;7.50;;;10.70;99.90;;;;;;5031440;28;20117;-63
2023/05/05 05:01:44;;;;;;;9.57;6.38;;;10.70;99.90;;;;;;5030087;28;20535;-62
2023/05/05 05:04:10;;;;;;;9.32;5.88;;;10.70;99.90;;;;;;5030473;28;20053;-63
2023/05/05 05:06:35;;;;;;;9.95;6.72;;;10.80;99.90;;;;;;5026700;28;20501;-63
2023/05/05 05:09:02;;;;;;;15.07;8.10;;;10.80;99.90;;;;;;5030846;28;20034;-63
2023/05/05 05:11:27;;;;;;;12.02;7.80;;;10.80;99.90;;;;;;5025167;28;20585;-62
2023/05/05 05:13:53;;;;;;;12.52;7.70;;;10.70;99.90;;;;;;5027038;28;20124;-63
2023/05/05 05:16:20;;;;;;;9.88;7.47;;;10.60;99.90;;;;;;5047198;28;20692;-61
2023/05/05 05:18:46;;;;;;;10.55;6.38;;;10.60;99.90;;;;;;5032282;28;20029;-62
2023/05/05 05:21:12;;;;;;;12.30;7.65;;;10.60;99.90;;;;;;5028222;28;20412;-62
2023/05/05 05:23:37;;;;;;;9.75;6.47;;;10.60;99.90;;;;;;5030636;28;20045;-63
2023/05/05 05:26:04;;;;;;;9.02;6.25;;;10.70;99.90;;;;;;4998955;28;20041;-63
2023/05/05 05:28:30;;;;;;;11.20;6.75;;;10.80;99.90;;;;;;5030843;28;20041;-63
2023/05/05 05:30:56;;;;;;;8.68;6.63;;;10.90;99.90;;;;;;5026512;28;20422;-62
2023/05/05 05:33:21;;;;;;;10.05;7.30;;;10.90;99.90;;;;;;5024711;28;20049;-62
2023/05/05 05:35:47;;;;;;;11.10;6.60;;;11.00;99.90;;;;;;5021575;28;20424;-63
2023/05/05 05:38:13;;;;;;;11.48;6.75;;;11.00;99.90;;;;;;5045210;28;20052;-62
2023/05/05 05:40:39;;;;;;;11.95;7.35;;;11.00;99.90;;;;;;5029992;28;20053;-63
2023/05/05 05:43:05;;;;;;;10.90;7.93;;;11.10;99.90;;;;;;5029950;28;20103;-62
2023/05/05 05:45:31;;;;;;;12.45;7.03;;;11.10;99.90;;;;;;5035806;28;20116;-62
2023/05/05 05:47:56;;;;;;;9.77;6.05;;;11.10;99.90;;;;;;5028972;28;20168;-60
2023/05/05 05:50:23;;;;;;;12.73;7.57;;;11.10;99.90;;;;;;5027945;28;20599;-61
2023/05/05 05:52:49;;;;;;;11.40;7.82;;;11.10;99.90;;;;;;5026674;28;20041;-60
2023/05/05 05:55:14;;;;;;;12.68;8.45;;;11.10;99.90;;;;;;5004325;28;20041;-61
2023/05/05 05:57:40;;;;;;;14.10;7.95;;;11.10;99.90;;;;;;5025323;28;20779;-63
2023/05/05 06:00:06;;;;;;;13.05;8.90;;;11.00;99.90;;;;;;5024021;28;20034;-62
2023/05/05 06:02:32;;;;;;;14.15;8.82;;;11.00;99.90;;;;;;5028325;28;20045;-63
2023/05/05 06:04:58;;;;;;;10.68;8.20;;;11.10;99.90;;;;;;5042330;28;20059;-61
2023/05/05 06:07:24;;;;;;;11.68;8.25;;;11.10;99.90;;;;;;5022184;28;20038;-62
2023/05/05 06:09:50;;;;;;;13.20;7.60;;;11.10;99.90;;;;;;5023286;28;21060;-60
2023/05/05 06:12:15;;;;;;;9.13;6.78;;;11.10;99.90;;;;;;5023533;28;20116;-61
2023/05/05 06:14:41;;;;;;;8.95;7.90;;;11.20;99.90;;;;;;5004005;28;20048;-61
2023/05/05 06:17:07;;;;;;;11.65;8.57;;;11.20;99.90;;;;;;5024161;28;20037;-62
2023/05/05 06:19:33;;;;;;;13.57;8.68;;;11.20;99.90;;;;;;5029253;28;20051;-62
2023/05/05 06:21:59;;;;;;;11.07;8.73;;;11.20;99.90;;;;;;5025026;28;20046;-62
2023/05/05 06:24:24;;;;;;;12.88;9.27;;;11.20;99.90;;;;;;5027362;28;20117;-61
2023/05/05 06:26:50;;;;;;;15.93;9.48;;;11.30;99.90;;;;;;5024927;28;20045;-60
2023/05/05 06:29:16;;;;;;;10.77;8.55;;;11.40;99.90;;;;;;5019081;28;20037;-62
2023/05/05 06:31:41;;;;;;;14.60;8.85;;;11.50;99.90;;;;;;5000503;28;20161;-62
2023/05/05 06:34:07;;;;;;;14.73;9.20;;;11.60;99.90;;;;;;5024065;28;20121;-61
2023/05/05 06:36:33;;;;;;;11.57;8.85;;;11.60;99.90;;;;;;5022154;28;20041;-61
2023/05/05 06:38:58;;;;;;;14.32;9.27;;;11.70;99.90;;;;;;5026424;28;20029;-62
2023/05/05 06:41:24;;;;;;;15.40;9.65;;;11.90;99.90;;;;;;5017950;28;20874;-61
2023/05/05 06:43:50;;;;;;;11.52;8.50;;;12.00;99.90;;;;;;5027498;28;20144;-62
2023/05/05 06:46:15;;;;;;;15.70;9.20;;;12.10;99.90;;;;;;5020920;28;20143;-61
2023/05/05 06:48:41;;;;;;;12.05;9.07;;;12.20;99.90;;;;;;5021615;28;20041;-63
2023/05/05 06:51:08;;;;;;;10.48;9.18;;;12.30;99.90;;;;;;5026338;28;20619;-62
2023/05/05 06:53:34;;;;;;;12.45;9.23;;;12.40;99.90;;;;;;5025004;28;20081;-62
2023/05/05 06:55:59;;;;;;;11.57;9.00;;;12.50;99.90;;;;;;5025839;28;20096;-62
2023/05/05 06:58:25;;;;;;;13.23;9.45;;;12.60;99.90;;;;;;5028806;28;20701;-61
2023/05/05 07:00:52;;;;;;;11.50;8.93;;;12.70;99.90;;;;;;5005733;28;20623;-63
2023/05/05 07:03:18;;;;;;;13.75;9.65;;;12.80;99.90;;;;;;5026237;28;20080;-61
2023/05/05 07:05:44;;;;;;;13.73;9.93;;;12.90;99.90;;;;;;5026514;28;20535;-63
2023/05/05 07:08:10;;;;;;;11.80;9.18;;;13.00;99.90;;;;;;5025665;28;20362;-63
2023/05/05 07:10:36;;;;;;;16.48;9.15;;;13.10;99.90;;;;;;5026264;28;20120;-62
2023/05/05 07:13:01;;;;;;;13.23;9.40;;;13.20;99.90;;;;;;5022973;28;20141;-63
2023/05/05 07:15:27;;;;;;;14.80;9.98;;;13.30;99.90;;;;;;5008814;28;20041;-61
2023/05/05 07:17:53;;;;;;;14.43;8.77;;;13.50;99.90;;;;;;5023139;28;20033;-62
2023/05/05 07:20:18;;;;;;;14.30;8.50;;;13.60;99.90;;;;;;5023092;28;20514;-63
2023/05/05 07:22:44;;;;;;;13.15;9.18;;;13.70;99.90;;;;;;5039241;28;20068;-61
2023/05/05 07:25:11;;;;;;;13.05;8.75;;;13.80;99.90;;;;;;5024221;28;20040;-62
2023/05/05 07:27:37;;;;;;;13.80;9.52;;;13.90;99.90;;;;;;5020244;28;20041;-62
2023/05/05 07:30:03;;;;;;;12.45;9.70;;;14.00;99.90;;;;;;5027579;28;20524;-62
2023/05/05 07:32:32;;;;;;;16.48;9.88;;;14.00;99.90;;;;;;5028482;28;20029;-62
2023/05/05 07:34:58;;;;;;;12.77;10.57;;;14.10;99.90;;;;;;5028554;28;20037;-62
2023/05/05 07:37:23;;;;;;;17.63;10.88;;;14.20;99.90;;;;;;5044486;28;20583;-62
2023/05/05 07:39:49;;;;;;;13.68;10.15;;;14.40;99.90;;;;;;5029656;28;20045;-63
2023/05/05 07:42:15;;;;;;;13.75;11.20;;;14.50;99.90;;;;;;5028618;28;20029;-62
2023/05/05 07:44:41;;;;;;;13.55;10.18;;;14.80;99.90;;;;;;5028687;28;20048;-63
2023/05/05 07:47:06;;;;;;;15.02;11.18;;;14.90;99.90;;;;;;5029028;28;20037;-62
2023/05/05 07:49:32;;;;;;;15.13;10.40;;;15.00;99.90;;;;;;5028520;28;20045;-62
2023/05/05 07:51:58;;;;;;;15.02;11.10;;;15.10;99.90;;;;;;5012146;28;20157;-63
2023/05/05 07:54:23;;;;;;;12.55;10.18;;;15.10;99.90;;;;;;5028112;28;20047;-64
2023/05/05 07:56:49;;;;;;;19.02;11.05;;;15.20;99.90;;;;;;5027997;28;20049;-64
2023/05/05 07:59:15;;;;;;;14.00;10.70;;;15.20;99.90;;;;;;5036737;28;20038;-62
2023/05/05 08:01:41;;;;;;;12.93;11.10;;;15.30;99.90;;;;;;5028377;28;20098;-63
2023/05/05 08:04:06;;;;;;;17.08;11.45;;;15.40;99.90;;;;;;5011647;28;20095;-64
2023/05/05 08:06:32;;;;;;;16.50;12.18;;;15.50;99.90;;;;;;5012093;28;20124;-62
2023/05/05 08:09:02;;;;;;;17.20;10.90;;;15.60;99.90;;;;;;5028043;28;20451;-63
2023/05/05 08:11:28;;;;;;;15.38;11.43;;;15.60;99.90;;;;;;5028427;28;20044;-62
2023/05/05 08:13:53;;;;;;;14.00;11.45;;;15.60;99.90;;;;;;5028106;28;20493;-62
2023/05/05 08:16:19;;;;;;;15.40;12.20;;;15.60;99.90;;;;;;5012196;28;20053;-63
2023/05/05 08:18:45;;;;;;;16.05;12.77;;;15.70;99.90;;;;;;5028004;28;20037;-63
2023/05/05 08:21:11;;;;;;;15.85;12.75;;;15.80;99.90;;;;;;5028284;28;20076;-62
2023/05/05 08:23:37;;;;;;;17.52;12.25;;;15.80;99.90;;;;;;5029129;28;20037;-63
2023/05/05 08:26:11;;;;;;;16.15;12.13;;;15.90;99.90;;;;;;5027832;28;20072;-63
2023/05/05 08:28:36;;;;;;;17.83;12.82;;;16.10;99.90;;;;;;5029558;28;20151;-62
2023/05/05 08:31:04;;;;;;;17.80;12.27;;;16.20;99.90;;;;;;5045083;28;20116;-63
2023/05/05 08:33:30;;;;;;;20.50;14.23;;;16.20;99.90;;;;;;5032209;28;20405;-64
2023/05/05 08:35:56;;;;;;;19.92;14.38;;;16.20;99.90;;;;;;5032389;28;20049;-65
2023/05/05 08:38:21;;;;;;;18.20;14.52;;;16.30;99.90;;;;;;5029921;28;20049;-63
2023/05/05 08:40:49;;;;;;;14.85;13.23;;;16.40;99.90;;;;;;5020869;28;20041;-63
2023/05/05 08:43:19;;;;;;;19.65;14.60;;;16.40;99.90;;;;;;5020735;28;20042;-63
2023/05/05 08:45:45;;;;;;;16.48;13.25;;;16.50;99.90;;;;;;5015510;28;20045;-64
2023/05/05 08:48:12;;;;;;;17.98;14.95;;;16.50;99.90;;;;;;5048625;28;20046;-63
2023/05/05 08:50:39;;;;;;;18.00;15.05;;;16.50;99.90;;;;;;5032070;28;20099;-64
2023/05/05 08:53:10;;;;;;;22.17;14.88;;;16.70;99.90;;;;;;5048360;28;20120;-65
2023/05/05 08:55:50;;;;;;;18.95;14.40;;;16.80;99.90;;;;;;5031521;28;20536;-64
2023/05/05 08:58:18;;;;;;;16.08;13.10;;;17.00;99.90;;;;;;5032017;28;20068;-64
2023/05/05 09:00:47;;;;;;;18.95;14.32;;;17.20;99.90;;;;;;5048287;28;20050;-62
2023/05/05 09:03:14;;;;;;;22.52;17.10;;;17.40;99.90;;;;;;5032867;28;20048;-64
2023/05/05 09:05:41;;;;;;;25.08;17.88;;;17.40;99.90;;;;;;4998895;28;20041;-65
2023/05/05 09:08:09;;;;;;;23.73;17.17;;;17.50;99.90;;;;;;5031499;28;20040;-65
2023/05/05 09:10:35;;;;;;;22.27;18.10;;;17.50;99.90;;;;;;5032945;28;20045;-64
2023/05/05 09:13:04;;;;;;;22.05;17.65;;;17.60;99.90;;;;;;5031593;28;20041;-65
2023/05/05 09:15:31;;;;;;;21.58;16.73;;;17.70;99.90;;;;;;5032605;28;20048;-63
2023/05/05 09:17:57;;;;;;;21.00;16.70;;;17.70;99.90;;;;;;5032479;28;20069;-64
2023/05/05 09:20:23;;;;;;;22.25;17.48;;;17.70;99.90;;;;;;5045264;28;20046;-64
2023/05/05 09:22:49;;;;;;;21.55;16.30;;;17.70;99.90;;;;;;5011735;28;20041;-64
2023/05/05 09:25:16;;;;;;;19.15;17.08;;;17.70;99.90;;;;;;5028255;28;20420;-64
2023/05/05 09:27:44;;;;;;;22.05;17.85;;;17.70;99.90;;;;;;5032717;28;20128;-64
2023/05/05 09:30:15;;;;;;;26.15;16.60;;;17.80;99.90;;;;;;5031325;28;20095;-65
2023/05/05 09:32:46;;;;;;;20.55;16.35;;;17.90;99.90;;;;;;5032864;28;20417;-65
2023/05/05 09:35:12;;;;;;;18.95;14.95;;;18.00;99.90;;;;;;5031109;28;20046;-65
2023/05/05 09:37:38;;;;;;;20.00;16.33;;;18.10;99.90;;;;;;5031048;28;20084;-64
2023/05/05 09:40:05;;;;;;;20.95;17.30;;;18.10;99.90;;;;;;5031301;28;20080;-64
2023/05/05 09:42:31;;;;;;;20.13;14.93;;;18.20;99.90;;;;;;5031358;28;20457;-64
2023/05/05 09:44:57;;;;;;;18.13;14.45;;;18.00;99.90;;;;;;5029920;28;20072;-63
2023/05/05 09:47:36;;;;;;;19.40;16.10;;;17.90;99.90;;;;;;5030454;28;20048;-64
2023/05/05 09:50:02;;;;;;;23.27;16.27;;;18.00;99.90;;;;;;5032260;28;20037;-63
2023/05/05 09:52:29;;;;;;;19.85;15.32;;;18.00;99.90;;;;;;5030517;28;20045;-63
2023/05/05 09:54:56;;;;;;;17.95;15.35;;;18.00;99.90;;;;;;5026954;28;20048;-62
2023/05/05 09:57:26;;;;;;;21.65;14.77;;;18.10;99.90;;;;;;5018166;28;20068;-61
2023/05/05 09:59:57;;;;;;;21.73;17.17;;;18.10;99.90;;;;;;5021928;28;20054;-63
2023/05/05 10:02:31;;;;;;;19.83;16.00;;;18.30;99.90;;;;;;5018851;28;20112;-63
2023/05/05 10:05:04;;;;;;;20.13;16.73;;;18.50;99.90;;;;;;5022458;28;21856;-63
2023/05/05 10:07:30;;;;;;;21.17;17.33;;;18.70;99.90;;;;;;5014687;28;20045;-62
2023/05/05 10:09:56;;;;;;;19.25;15.45;;;18.60;99.90;;;;;;5023701;28;20041;-62
2023/05/05 10:12:23;;;;;;;19.85;16.92;;;18.80;99.90;;;;;;5020719;28;20036;-61
2023/05/05 10:14:52;;;;;;;18.80;15.70;;;18.90;99.90;;;;;;5016227;28;20063;-62
2023/05/05 10:17:21;;;;;;;28.00;17.55;;;19.00;99.90;;;;;;5020312;28;20524;-63
2023/05/05 10:19:51;;;;;;;21.65;15.90;;;19.00;99.90;;;;;;5022465;28;20120;-63
2023/05/05 10:22:21;;;;;;;18.75;14.35;;;18.90;99.90;;;;;;5021644;28;20045;-61
2023/05/05 10:24:56;;;;;;;20.48;14.20;;;19.00;99.90;;;;;;5022624;28;20045;-62
2023/05/05 10:27:24;;;;;;;15.82;11.93;;;18.80;99.90;;;;;;5017382;28;20045;-59
2023/05/05 10:30:06;;;;;;;15.13;12.38;;;19.00;99.90;;;;;;5022237;28;20033;-62
2023/05/05 10:32:59;;;;;;;15.10;12.40;;;19.10;99.90;;;;;;5023841;28;20041;-62
2023/05/05 10:35:27;;;;;;;17.08;10.05;;;19.10;99.90;;;;;;5016891;28;20546;-60
2023/05/05 10:37:53;;;;;;;16.88;11.00;;;18.70;99.90;;;;;;5017135;28;20049;-62
2023/05/05 10:40:21;;;;;;;12.13;9.48;;;18.60;99.90;;;;;;5013669;28;20099;-64
2023/05/05 10:42:50;;;;;;;12.85;9.32;;;18.70;99.90;;;;;;5017017;28;20041;-61
2023/05/05 10:45:16;;;;;;;12.98;9.52;;;19.10;99.90;;;;;;5023684;28;20052;-62
2023/05/05 10:47:43;;;;;;;15.38;10.30;;;19.40;99.90;;;;;;5019366;28;20508;-60
2023/05/05 10:50:20;;;;;;;14.45;10.30;;;19.10;99.90;;;;;;5006411;28;20077;-61
2023/05/05 10:52:50;;;;;;;16.35;9.38;;;19.20;99.90;;;;;;5022583;28;20080;-60
2023/05/05 10:55:37;;;;;;;11.02;8.18;;;19.30;99.90;;;;;;5016758;28;20057;-62
2023/05/05 10:58:03;;;;;;;11.85;8.82;;;19.10;99.90;;;;;;5018470;28;20126;-67
2023/05/05 11:00:38;;;;;;;12.52;7.78;;;19.40;99.90;;;;;;4985502;28;20041;-62
2023/05/05 11:03:16;;;;;;;12.48;7.55;;;19.40;99.90;;;;;;5037138;28;20068;-63
2023/05/05 11:06:07;;;;;;;11.02;8.00;;;19.40;99.90;;;;;;5019024;28;20682;-64
2023/05/05 11:08:38;;;;;;;10.48;8.32;;;19.20;99.90;;;;;;5022955;28;20111;-63
2023/05/05 11:11:09;;;;;;;10.30;7.10;;;19.00;99.90;;;;;;5036230;28;20047;-62
2023/05/05 11:13:36;;;;;;;9.68;7.72;;;19.10;99.90;;;;;;5023745;28;20041;-61
2023/05/05 11:16:02;;;;;;;10.90;6.68;;;19.10;99.90;;;;;;5026005;28;20037;-62
2023/05/05 11:18:29;;;;;;;14.38;8.43;;;19.20;99.90;;;;;;4998099;28;20041;-62
2023/05/05 11:20:58;;;;;;;12.05;7.75;;;18.90;99.90;;;;;;5016274;28;20639;-61
2023/05/05 11:23:27;;;;;;;10.60;7.25;;;18.90;99.90;;;;;;5020920;28;20136;-61
2023/05/05 11:25:56;;;;;;;8.18;6.15;;;18.90;99.90;;;;;;5031878;28;20381;-60
2023/05/05 11:28:29;;;;;;;8.75;6.00;;;18.70;99.90;;;;;;5018915;28;20091;-62
2023/05/05 11:30:55;;;;;;;8.52;6.35;;;18.70;99.90;;;;;;5020132;28;20038;-61
2023/05/05 11:33:35;;;;;;;7.88;5.28;;;18.70;99.90;;;;;;5022613;28;20053;-62
2023/05/05 11:36:06;;;;;;;9.25;5.47;;;18.60;99.90;;;;;;5025295;28;20049;-59
2023/05/05 11:38:52;;;;;;;7.25;5.00;;;18.50;99.90;;;;;;5022065;28;20087;-60
2023/05/05 11:41:32;;;;;;;9.45;5.18;;;18.50;99.90;;;;;;5019316;28;20122;-60
2023/05/05 11:44:14;;;;;;;7.95;5.10;;;18.30;99.90;;;;;;5020569;28;20074;-59
2023/05/05 11:47:03;;;;;;;7.78;5.80;;;18.20;99.90;;;;;;5022102;28;20073;-61
2023/05/05 11:49:36;;;;;;;10.75;6.40;;;18.20;99.90;;;;;;5019388;28;20302;-62
2023/05/05 11:52:03;;;;;;;;;;;18.20;99.90;;;;;;5030427;28;20041;-61
2023/05/05 11:54:29;;;;;;;10.93;7.07;;;18.10;99.90;;;;;;5021723;28;20013;-62
2023/05/05 11:56:58;;;;;;;13.13;6.15;;;18.10;99.90;;;;;;5007657;28;20064;-61
2023/05/05 11:59:24;;;;;;;11.70;8.02;;;18.20;99.90;;;;;;5023008;28;20302;-62
2023/05/05 12:01:50;;;;;;;11.32;8.43;;;18.10;99.90;;;;;;5037879;28;20052;-62
2023/05/05 12:04:17;;;;;;;11.35;8.18;;;18.10;99.90;;;;;;5024756;28;20065;-60
2023/05/05 12:06:45;;;;;;;9.23;7.68;;;18.10;99.90;;;;;;5024957;28;20519;-62
2023/05/05 12:09:15;;;;;;;11.98;8.63;;;18.10;99.90;;;;;;5025763;28;20065;-62
2023/05/05 12:11:51;;;;;;;11.73;8.50;;;18.20;99.90;;;;;;5021862;28;20068;-60
2023/05/05 12:14:17;;;;;;;13.70;8.65;;;18.20;99.90;;;;;;5023119;28;20042;-60
2023/05/05 12:16:56;;;;;;;12.65;8.50;;;18.20;99.90;;;;;;5025888;28;20043;-59
2023/05/05 12:19:23;;;;;;;9.95;7.95;;;18.20;99.90;;;;;;5019996;28;20133;-59
2023/05/05 12:21:49;;;;;;;9.88;8.05;;;18.20;99.90;;;;;;5027193;28;20420;-59
2023/05/05 12:24:15;;;;;;;10.77;6.95;;;18.30;99.90;;;;;;5024515;28;20452;-59
2023/05/05 12:26:41;;;;;;;12.20;7.88;;;18.30;99.90;;;;;;5024541;28;20041;-59
2023/05/05 12:29:07;;;;;;;9.02;6.93;;;18.20;99.90;;;;;;5005357;28;20053;-60
2023/05/05 12:31:37;;;;;;;7.78;6.53;;;18.20;99.90;;;;;;5025051;28;20034;-61
2023/05/05 12:34:04;;;;;;;8.90;6.70;;;18.10;99.90;;;;;;5020660;28;20521;-61
2023/05/05 12:36:32;;;;;;;8.05;6.32;;;18.10;99.90;;;;;;5024728;28;20673;-59
2023/05/05 12:38:58;;;;;;;10.35;6.65;;;18.10;99.90;;;;;;5021194;28;20049;-59
2023/05/05 12:41:23;;;;;;;8.80;7.40;;;18.10;99.90;;;;;;5013539;28;20038;-58
2023/05/05 12:43:57;;;;;;;11.38;7.60;;;18.00;99.90;;;;;;5021294;28;20050;-58